Time;durP1;ratioP1;P1;durP2;ratioP2;P2;SDS_P1;SDS_P2;PMS_P1;PMS_P2;Temp;Humidity;BMP_temperature;BMP_pressure;BME280_temperature;BME280_humidity;BME280_pressure;Samples;Min_cycle;Max_cycle;Signal;HPM_P1;HPM_P2
2023/07/16 00:01:28;;;;;;;9.03;2.70;;;20.80;99.90;;;;;;5021700;28;20548;-68
2023/07/16 00:04:13;;;;;;;4.73;2.60;;;20.90;99.90;;;;;;5012598;28;20464;-68
2023/07/16 00:07:01;;;;;;;6.97;2.53;;;20.80;99.90;;;;;;5016126;28;20554;-68
2023/07/16 00:09:46;;;;;;;4.40;2.70;;;20.70;99.90;;;;;;5023215;28;20481;-68
2023/07/16 00:12:31;;;;;;;6.10;2.50;;;20.70;99.90;;;;;;5019128;28;20420;-68
2023/07/16 00:15:17;;;;;;;4.33;2.23;;;20.70;99.90;;;;;;5021473;28;20411;-68
2023/07/16 00:18:03;;;;;;;4.60;2.60;;;20.50;99.90;;;;;;5018125;28;20480;-68
2023/07/16 00:20:48;;;;;;;5.40;2.77;;;20.50;99.90;;;;;;5016524;28;20450;-69
2023/07/16 00:23:35;;;;;;;5.60;2.00;;;20.40;99.90;;;;;;5023274;28;20448;-69
2023/07/16 00:26:20;;;;;;;5.63;2.00;;;20.20;99.90;;;;;;5020192;28;20510;-68
2023/07/16 00:29:06;;;;;;;2.80;2.07;;;20.30;99.90;;;;;;5021173;28;20454;-69
2023/07/16 00:31:52;;;;;;;9.67;2.37;;;20.30;99.90;;;;;;5016000;28;20599;-69
2023/07/16 00:34:37;;;;;;;6.50;2.10;;;20.20;99.90;;;;;;5016290;28;20428;-69
2023/07/16 00:37:23;;;;;;;4.03;1.80;;;20.20;99.90;;;;;;5022547;28;20493;-69
2023/07/16 00:40:10;;;;;;;7.07;2.27;;;20.20;99.90;;;;;;5019276;28;20454;-69
2023/07/16 00:42:55;;;;;;;4.33;2.53;;;20.20;99.90;;;;;;5022208;28;20850;-69
2023/07/16 00:45:42;;;;;;;2.63;2.00;;;20.30;99.90;;;;;;5018938;28;20554;-69
2023/07/16 00:48:30;;;;;;;4.00;2.60;;;20.30;99.90;;;;;;5017345;28;20537;-68
2023/07/16 00:51:16;;;;;;;5.57;2.40;;;20.20;99.90;;;;;;5022867;28;20564;-69
2023/07/16 00:54:02;;;;;;;3.20;2.37;;;20.30;99.90;;;;;;5024166;28;20571;-69
2023/07/16 00:56:49;;;;;;;4.30;2.37;;;20.20;99.90;;;;;;5032608;28;20473;-69
2023/07/16 00:59:34;;;;;;;5.37;2.70;;;20.30;99.90;;;;;;5020421;28;20543;-69
2023/07/16 01:02:20;;;;;;;6.10;2.70;;;20.40;99.90;;;;;;5023392;28;20415;-69
2023/07/16 01:05:06;;;;;;;3.37;2.63;;;20.30;99.90;;;;;;5017258;28;20457;-69
2023/07/16 01:08:01;;;;;;;7.23;3.37;;;20.30;99.90;;;;;;5024079;28;20901;-69
2023/07/16 01:10:46;;;;;;;9.93;3.17;;;20.30;99.90;;;;;;5025767;28;20445;-69
2023/07/16 01:13:34;;;;;;;13.37;3.33;;;20.30;99.90;;;;;;5024047;28;20416;-69
2023/07/16 01:16:21;;;;;;;5.60;3.43;;;20.30;99.90;;;;;;5022328;28;20587;-69
2023/07/16 01:19:06;;;;;;;6.53;3.40;;;20.30;99.90;;;;;;5024704;28;21064;-69
2023/07/16 01:22:05;;;;;;;6.17;3.90;;;20.40;99.90;;;;;;5027774;28;20441;-68
2023/07/16 01:25:19;;;;;;;5.60;3.40;;;20.20;99.90;;;;;;5019613;28;20975;-68
2023/07/16 01:28:22;;;;;;;4.90;3.27;;;20.20;99.90;;;;;;5029776;28;20449;-68
2023/07/16 01:31:11;;;;;;;8.27;3.77;;;20.20;99.90;;;;;;5024789;28;20554;-68
2023/07/16 01:33:58;;;;;;;7.47;3.40;;;20.20;99.90;;;;;;5025243;28;20494;-68
2023/07/16 01:36:46;;;;;;;6.00;4.07;;;20.00;99.90;;;;;;5019895;28;20459;-68
2023/07/16 01:39:32;;;;;;;5.87;3.57;;;20.00;99.90;;;;;;5022846;28;20458;-68
2023/07/16 01:42:18;;;;;;;4.47;3.60;;;20.10;99.90;;;;;;5025681;28;20437;-68
2023/07/16 01:45:04;;;;;;;5.83;2.80;;;20.10;99.90;;;;;;5020060;28;20471;-68
2023/07/16 01:48:01;;;;;;;5.10;3.13;;;20.00;99.90;;;;;;5025122;28;20574;-68
2023/07/16 01:50:46;;;;;;;4.03;3.47;;;20.00;99.90;;;;;;5026601;28;20412;-68
2023/07/16 01:53:32;;;;;;;10.67;3.20;;;20.00;99.90;;;;;;5031521;28;20465;-68
2023/07/16 01:56:17;;;;;;;5.87;3.90;;;20.00;99.90;;;;;;5030326;28;20431;-68
2023/07/16 01:59:03;;;;;;;5.47;3.17;;;19.80;99.90;;;;;;5031231;28;20434;-68
2023/07/16 02:01:48;;;;;;;4.53;2.87;;;19.80;99.90;;;;;;5032339;28;20460;-68
2023/07/16 02:04:35;;;;;;;8.80;3.77;;;19.80;99.90;;;;;;5024870;28;20453;-68
2023/07/16 02:07:21;;;;;;;4.10;3.10;;;19.80;99.90;;;;;;5042254;22;20943;-72
2023/07/16 02:10:07;;;;;;;4.37;3.30;;;19.70;99.90;;;;;;5022766;28;20440;-72
2023/07/16 02:12:53;;;;;;;5.47;3.23;;;19.70;99.90;;;;;;5024113;28;20463;-72
2023/07/16 02:15:38;;;;;;;5.83;3.20;;;19.70;99.90;;;;;;5024260;28;20944;-71
2023/07/16 02:18:24;;;;;;;5.40;3.03;;;19.70;99.90;;;;;;5023981;28;20435;-72
2023/07/16 02:21:11;;;;;;;3.73;2.40;;;19.60;99.90;;;;;;5022257;28;20498;-72
2023/07/16 02:23:56;;;;;;;3.93;2.30;;;19.70;99.90;;;;;;5025011;28;20448;-71
2023/07/16 02:26:42;;;;;;;4.13;2.40;;;19.60;99.90;;;;;;5025125;28;20511;-71
2023/07/16 02:29:28;;;;;;;4.40;2.10;;;19.60;99.90;;;;;;5021643;28;20589;-72
2023/07/16 02:32:13;;;;;;;8.27;2.83;;;19.40;99.90;;;;;;5019923;28;20495;-72
2023/07/16 02:34:59;;;;;;;5.20;2.93;;;19.40;99.90;;;;;;5029572;28;20415;-72
2023/07/16 02:37:45;;;;;;;4.53;2.40;;;19.40;99.90;;;;;;5025465;28;20469;-72
2023/07/16 02:40:31;;;;;;;4.67;2.37;;;19.40;99.90;;;;;;5022781;28;20531;-71
2023/07/16 02:43:16;;;;;;;3.60;2.40;;;19.40;99.90;;;;;;5015697;28;20929;-71
2023/07/16 02:46:02;;;;;;;5.50;2.23;;;19.40;99.90;;;;;;5022828;28;20445;-72
2023/07/16 02:48:47;;;;;;;4.97;1.87;;;19.40;99.90;;;;;;5017584;28;20494;-72
2023/07/16 02:51:33;;;;;;;4.83;2.10;;;19.40;99.90;;;;;;5020540;28;20464;-72
2023/07/16 02:54:20;;;;;;;4.27;2.20;;;19.30;99.90;;;;;;5021922;28;21012;-71
2023/07/16 02:57:07;;;;;;;5.53;2.10;;;19.30;99.90;;;;;;5020967;28;20579;-71
2023/07/16 02:59:52;;;;;;;4.70;2.53;;;19.30;99.90;;;;;;5017260;28;22720;-72
2023/07/16 03:02:38;;;;;;;14.60;2.73;;;19.20;99.90;;;;;;5022446;28;20437;-72
2023/07/16 03:05:23;;;;;;;6.70;2.40;;;19.10;99.90;;;;;;5018882;28;20441;-72
2023/07/16 03:08:08;;;;;;;7.60;2.07;;;19.10;99.90;;;;;;5025575;28;20859;-72
2023/07/16 03:10:55;;;;;;;5.93;2.63;;;19.10;99.90;;;;;;5023700;28;20432;-72
2023/07/16 03:13:41;;;;;;;5.07;2.57;;;19.10;99.90;;;;;;5018497;28;20894;-72
2023/07/16 03:16:26;;;;;;;6.90;2.93;;;19.00;99.90;;;;;;5016250;28;20470;-72
2023/07/16 03:19:12;;;;;;;4.97;2.70;;;18.90;99.90;;;;;;5019689;28;20468;-72
2023/07/16 03:21:57;;;;;;;7.93;2.70;;;18.90;99.90;;;;;;5015096;28;20441;-71
2023/07/16 03:24:43;;;;;;;5.70;3.27;;;18.90;99.90;;;;;;5017830;28;21034;-72
2023/07/16 03:27:30;;;;;;;8.27;2.80;;;19.00;99.90;;;;;;5015610;28;20485;-72
2023/07/16 03:30:15;;;;;;;6.10;2.47;;;19.00;99.90;;;;;;5019852;28;20775;-72
2023/07/16 03:33:01;;;;;;;5.50;2.90;;;19.00;99.90;;;;;;5014901;28;20457;-71
2023/07/16 03:35:48;;;;;;;8.73;2.50;;;19.00;99.90;;;;;;5019692;28;20506;-71
2023/07/16 03:38:33;;;;;;;7.13;2.63;;;18.90;99.90;;;;;;5018885;28;20422;-72
2023/07/16 03:41:19;;;;;;;4.97;2.80;;;18.80;99.90;;;;;;5014948;28;20453;-71
2023/07/16 03:44:06;;;;;;;10.10;2.53;;;18.80;99.90;;;;;;5016127;28;20424;-72
2023/07/16 03:46:52;;;;;;;7.53;2.80;;;18.80;99.90;;;;;;5016463;28;20447;-72
2023/07/16 03:49:37;;;;;;;9.73;2.77;;;18.80;99.90;;;;;;5020557;28;20423;-72
2023/07/16 03:52:24;;;;;;;5.30;2.70;;;18.80;99.90;;;;;;5016142;28;20556;-71
2023/07/16 03:55:10;;;;;;;6.17;2.57;;;18.80;99.90;;;;;;5025784;28;20453;-73
2023/07/16 03:57:56;;;;;;;5.70;2.73;;;18.80;99.90;;;;;;5019604;28;20518;-71
2023/07/16 04:00:44;;;;;;;7.47;3.30;;;18.90;99.90;;;;;;5015904;28;20604;-71
2023/07/16 04:03:29;;;;;;;6.50;2.60;;;19.00;99.90;;;;;;5016006;28;20933;-71
2023/07/16 04:06:15;;;;;;;8.00;2.80;;;19.00;99.90;;;;;;5020137;28;20799;-73
2023/07/16 04:09:00;;;;;;;6.20;2.47;;;18.90;99.90;;;;;;5024686;28;20420;-74
2023/07/16 04:11:46;;;;;;;5.57;2.40;;;18.70;99.90;;;;;;5017817;28;20491;-74
2023/07/16 04:14:31;;;;;;;4.47;2.30;;;18.70;99.90;;;;;;5027130;28;21071;-74
2023/07/16 04:17:18;;;;;;;5.73;2.90;;;18.60;99.90;;;;;;5022400;28;20826;-73
2023/07/16 04:20:06;;;;;;;6.13;2.63;;;18.60;99.90;;;;;;5025164;28;20443;-73
2023/07/16 04:22:51;;;;;;;5.30;2.50;;;18.70;99.90;;;;;;5023000;28;20437;-71
2023/07/16 04:25:37;;;;;;;8.10;3.00;;;18.50;99.90;;;;;;5017918;28;20445;-74
2023/07/16 04:28:23;;;;;;;4.87;2.40;;;18.40;99.90;;;;;;5027281;28;21084;-74
2023/07/16 04:31:08;;;;;;;10.77;2.93;;;18.50;99.90;;;;;;5022732;28;20449;-71
2023/07/16 04:33:55;;;;;;;10.03;2.43;;;18.40;99.90;;;;;;5030410;28;20530;-74
2023/07/16 04:36:42;;;;;;;6.03;2.47;;;18.40;99.90;;;;;;5020727;28;20580;-73
2023/07/16 04:39:28;;;;;;;8.03;3.27;;;18.40;99.90;;;;;;5023796;28;20456;-73
2023/07/16 04:42:13;;;;;;;8.37;3.00;;;18.40;99.90;;;;;;5026236;28;20575;-73
2023/07/16 04:44:59;;;;;;;5.20;2.30;;;18.50;99.90;;;;;;5027207;28;20448;-73
2023/07/16 04:47:44;;;;;;;6.67;2.77;;;18.50;99.90;;;;;;5023515;28;20948;-73
2023/07/16 04:50:31;;;;;;;10.87;2.80;;;18.60;99.90;;;;;;5018121;28;20819;-73
2023/07/16 04:53:18;;;;;;;8.73;2.33;;;18.60;99.90;;;;;;5023682;28;20806;-73
2023/07/16 04:56:04;;;;;;;6.10;2.87;;;18.60;99.90;;;;;;5021237;28;20448;-73
2023/07/16 04:58:50;;;;;;;5.47;2.30;;;18.60;99.90;;;;;;5023955;28;20427;-73
2023/07/16 05:01:35;;;;;;;7.87;2.30;;;18.70;99.90;;;;;;5022839;28;20789;-73
2023/07/16 05:04:21;;;;;;;6.73;2.57;;;18.70;99.90;;;;;;5029673;28;20423;-70
2023/07/16 05:07:08;;;;;;;4.60;2.20;;;18.80;99.90;;;;;;5024852;28;20964;-73
2023/07/16 05:09:53;;;;;;;6.87;2.93;;;18.70;99.90;;;;;;5025490;28;20410;-73
2023/07/16 05:12:39;;;;;;;7.53;2.43;;;18.70;99.90;;;;;;5028466;28;20470;-73
2023/07/16 05:15:24;;;;;;;8.83;2.60;;;18.70;99.90;;;;;;5024341;28;20444;-72
2023/07/16 05:18:10;;;;;;;7.17;2.30;;;18.80;99.90;;;;;;5020878;28;20442;-73
2023/07/16 05:20:55;;;;;;;6.33;2.53;;;18.70;99.90;;;;;;5022233;28;20467;-73
2023/07/16 05:23:42;;;;;;;7.80;2.30;;;18.80;99.90;;;;;;5020210;28;20803;-73
2023/07/16 05:26:28;;;;;;;8.60;2.87;;;18.90;99.90;;;;;;5019697;28;20500;-73
2023/07/16 05:29:13;;;;;;;5.10;2.10;;;18.90;99.90;;;;;;5022604;28;20899;-73
2023/07/16 05:31:59;;;;;;;8.47;2.23;;;18.90;99.90;;;;;;5024910;28;20507;-73
2023/07/16 05:34:44;;;;;;;5.17;2.20;;;18.90;99.90;;;;;;5023962;28;20479;-73
2023/07/16 05:37:30;;;;;;;6.33;2.67;;;19.00;99.90;;;;;;5024008;28;20446;-74
2023/07/16 05:40:17;;;;;;;5.50;2.73;;;18.80;99.90;;;;;;5021739;28;20913;-73
2023/07/16 05:43:02;;;;;;;6.50;3.20;;;18.70;99.90;;;;;;5021002;28;20523;-73
2023/07/16 05:45:49;;;;;;;5.73;2.43;;;18.60;99.90;;;;;;5021776;28;20435;-73
2023/07/16 05:48:35;;;;;;;18.70;2.97;;;18.70;99.90;;;;;;5020308;28;20529;-73
2023/07/16 05:51:20;;;;;;;8.37;2.53;;;18.90;99.90;;;;;;5020475;28;20463;-73
2023/07/16 05:54:06;;;;;;;8.50;2.37;;;19.10;99.90;;;;;;5024860;28;20441;-74
2023/07/16 05:56:53;;;;;;;11.47;3.37;;;19.10;99.90;;;;;;5022048;28;20442;-73
2023/07/16 05:59:38;;;;;;;5.77;2.90;;;19.20;99.90;;;;;;5021815;28;20996;-73
2023/07/16 06:02:24;;;;;;;7.30;3.23;;;19.10;99.90;;;;;;5025291;28;20430;-74
2023/07/16 06:05:10;;;;;;;5.07;2.53;;;19.10;99.90;;;;;;5025855;28;20466;-72
2023/07/16 06:07:56;;;;;;;3.53;2.13;;;19.10;99.90;;;;;;5024813;28;20451;-73
2023/07/16 06:10:41;;;;;;;8.97;3.40;;;19.20;99.90;;;;;;5022853;28;20417;-73
2023/07/16 06:13:28;;;;;;;5.50;3.07;;;19.30;99.90;;;;;;5021091;28;20987;-73
2023/07/16 06:16:14;;;;;;;6.33;2.53;;;19.20;99.90;;;;;;5019669;28;20545;-73
2023/07/16 06:18:59;;;;;;;3.70;2.30;;;19.10;99.90;;;;;;5023370;28;20526;-73
2023/07/16 06:21:45;;;;;;;10.70;2.70;;;19.00;99.90;;;;;;5019005;28;20505;-73
2023/07/16 06:24:30;;;;;;;6.40;2.63;;;19.00;99.90;;;;;;5025656;28;20444;-73
2023/07/16 06:27:15;;;;;;;4.47;2.40;;;19.00;99.90;;;;;;5024387;28;20435;-73
2023/07/16 06:30:03;;;;;;;11.20;2.57;;;19.00;99.90;;;;;;5021566;28;20415;-73
2023/07/16 06:32:48;;;;;;;6.33;2.47;;;19.30;99.90;;;;;;5025827;28;20977;-73
2023/07/16 06:35:34;;;;;;;9.10;2.70;;;19.40;99.90;;;;;;5023197;28;20419;-73
2023/07/16 06:38:20;;;;;;;6.83;2.40;;;19.50;99.90;;;;;;5022038;28;22838;-73
2023/07/16 06:41:05;;;;;;;6.13;2.20;;;19.70;99.90;;;;;;5022429;28;20447;-73
2023/07/16 06:43:50;;;;;;;8.97;2.87;;;19.70;99.90;;;;;;5019271;28;20925;-73
2023/07/16 06:46:37;;;;;;;10.10;2.60;;;19.70;99.90;;;;;;5019480;28;20451;-73
2023/07/16 06:49:23;;;;;;;5.60;2.27;;;19.70;99.90;;;;;;5017071;28;20419;-73
2023/07/16 06:52:09;;;;;;;8.47;2.47;;;19.70;99.90;;;;;;5018596;28;20558;-73
2023/07/16 06:54:54;;;;;;;4.40;2.20;;;19.70;99.90;;;;;;5018272;28;20416;-73
2023/07/16 06:57:40;;;;;;;10.50;3.20;;;19.60;99.90;;;;;;5019934;28;21060;-73
2023/07/16 07:00:26;;;;;;;7.83;3.13;;;19.50;99.90;;;;;;5023367;28;20860;-73
2023/07/16 07:03:12;;;;;;;8.00;2.30;;;19.50;99.90;;;;;;5021287;28;20419;-73
2023/07/16 07:05:58;;;;;;;5.93;2.70;;;19.60;99.90;;;;;;5019678;28;20445;-73
2023/07/16 07:08:43;;;;;;;20.20;2.50;;;19.80;99.90;;;;;;5026288;28;20512;-73
2023/07/16 07:11:29;;;;;;;12.77;2.67;;;20.00;99.90;;;;;;5012569;28;20877;-73
2023/07/16 07:14:14;;;;;;;5.97;2.47;;;20.00;99.90;;;;;;5025242;28;20584;-73
2023/07/16 07:17:00;;;;;;;11.83;2.53;;;19.70;99.90;;;;;;5020437;28;20443;-73
2023/07/16 07:19:47;;;;;;;11.57;3.03;;;19.70;99.90;;;;;;5020744;28;20441;-73
2023/07/16 07:22:32;;;;;;;6.93;3.00;;;19.60;99.90;;;;;;5023388;28;20455;-73
2023/07/16 07:25:18;;;;;;;12.07;3.17;;;19.60;99.90;;;;;;5017978;28;20466;-73
2023/07/16 07:28:04;;;;;;;7.97;3.23;;;19.70;99.90;;;;;;5024175;28;20853;-73
2023/07/16 07:30:50;;;;;;;5.17;2.70;;;19.50;99.90;;;;;;5018758;28;20441;-73
2023/07/16 07:33:35;;;;;;;11.33;3.17;;;19.60;99.90;;;;;;5017605;28;20445;-73
2023/07/16 07:36:22;;;;;;;8.40;3.60;;;19.50;99.90;;;;;;5018429;28;20449;-72
2023/07/16 07:39:08;;;;;;;6.80;2.60;;;19.50;99.90;;;;;;5016740;28;20919;-73
2023/07/16 07:41:53;;;;;;;8.00;2.87;;;19.60;99.90;;;;;;5022462;28;20481;-73
2023/07/16 07:44:39;;;;;;;8.77;3.10;;;19.70;99.90;;;;;;5022677;28;20978;-73
2023/07/16 07:47:24;;;;;;;7.67;2.97;;;19.80;99.90;;;;;;5021217;28;20604;-73
2023/07/16 07:50:10;;;;;;;6.20;2.43;;;19.90;99.90;;;;;;5020645;28;20812;-73
2023/07/16 07:52:57;;;;;;;9.73;2.70;;;20.00;99.90;;;;;;5023664;28;21605;-73
2023/07/16 07:55:42;;;;;;;9.03;3.57;;;20.20;99.90;;;;;;5021442;28;20503;-74
2023/07/16 07:58:28;;;;;;;8.50;2.93;;;20.10;99.90;;;;;;5014294;28;20975;-73
2023/07/16 08:01:14;;;;;;;6.53;2.83;;;20.30;99.90;;;;;;5019331;28;20455;-73
2023/07/16 08:03:59;;;;;;;12.07;2.80;;;20.30;99.90;;;;;;5027875;28;20437;-73
2023/07/16 08:06:45;;;;;;;7.70;3.07;;;20.40;99.90;;;;;;5026472;28;20454;-75
2023/07/16 08:09:32;;;;;;;9.37;2.70;;;20.50;99.90;;;;;;5023467;28;20412;-73
2023/07/16 08:12:17;;;;;;;8.10;3.30;;;20.50;99.90;;;;;;5020959;28;20415;-73
2023/07/16 08:15:03;;;;;;;8.00;2.47;;;20.30;99.90;;;;;;5024869;28;20434;-73
2023/07/16 08:17:49;;;;;;;9.80;2.80;;;20.20;99.90;;;;;;5026063;28;20495;-73
2023/07/16 08:20:36;;;;;;;7.13;3.60;;;20.30;99.90;;;;;;5025786;28;20476;-73
2023/07/16 08:23:21;;;;;;;10.80;3.20;;;20.40;99.90;;;;;;5021664;28;20444;-73
2023/07/16 08:26:08;;;;;;;4.00;2.47;;;20.50;99.90;;;;;;5022236;28;20472;-73
2023/07/16 08:28:54;;;;;;;5.40;3.03;;;20.70;99.90;;;;;;5023669;28;20436;-73
2023/07/16 08:31:40;;;;;;;10.60;3.13;;;20.80;99.90;;;;;;5024977;28;20436;-73
2023/07/16 08:34:25;;;;;;;9.07;3.00;;;20.80;99.90;;;;;;5026014;28;20559;-73
2023/07/16 08:37:11;;;;;;;10.93;2.80;;;20.70;99.90;;;;;;5021631;28;20464;-73
2023/07/16 08:39:56;;;;;;;6.50;2.60;;;20.60;99.90;;;;;;5030002;28;20447;-73
2023/07/16 08:42:46;;;;;;;10.13;2.93;;;20.60;99.90;;;;;;5023773;28;20419;-73
2023/07/16 08:45:32;;;;;;;9.90;3.20;;;20.70;99.90;;;;;;5024753;28;20808;-73
2023/07/16 08:48:18;;;;;;;5.60;2.57;;;20.80;99.90;;;;;;5026026;28;20501;-73
2023/07/16 08:51:04;;;;;;;8.57;2.60;;;20.90;99.90;;;;;;5026445;28;20430;-73
2023/07/16 08:53:49;;;;;;;6.17;2.40;;;21.10;99.90;;;;;;5019876;28;20502;-73
2023/07/16 08:56:35;;;;;;;8.30;3.10;;;21.40;99.90;;;;;;5021899;28;20438;-73
2023/07/16 08:59:22;;;;;;;7.57;2.77;;;21.50;99.90;;;;;;5029399;28;20549;-73
2023/07/16 09:02:08;;;;;;;8.03;2.83;;;21.20;99.90;;;;;;5018999;28;21108;-73
2023/07/16 09:04:54;;;;;;;6.27;2.83;;;21.20;99.90;;;;;;5025937;28;20449;-73
2023/07/16 09:07:39;;;;;;;10.90;3.33;;;21.20;99.90;;;;;;5027302;28;20548;-72
2023/07/16 09:10:25;;;;;;;11.30;3.17;;;21.30;99.90;;;;;;5022076;28;20441;-73
2023/07/16 09:13:11;;;;;;;8.27;2.80;;;21.30;99.90;;;;;;5020722;28;20901;-73
2023/07/16 09:15:59;;;;;;;9.13;2.40;;;21.20;99.90;;;;;;5031363;28;20495;-73
2023/07/16 09:18:45;;;;;;;10.80;2.67;;;21.30;99.90;;;;;;5023765;28;20491;-73
2023/07/16 09:21:33;;;;;;;6.47;2.17;;;21.30;99.90;;;;;;5024034;28;20590;-73
2023/07/16 09:24:20;;;;;;;13.30;3.13;;;21.30;99.90;;;;;;5026577;28;20416;-73
2023/07/16 09:27:06;;;;;;;7.97;2.80;;;21.40;99.90;;;;;;5025618;28;20488;-73
2023/07/16 09:29:51;;;;;;;6.40;2.57;;;21.40;99.90;;;;;;5027773;28;20580;-73
2023/07/16 09:32:40;;;;;;;7.87;2.40;;;21.50;99.90;;;;;;5024335;28;20527;-73
2023/07/16 09:35:26;;;;;;;10.07;3.13;;;21.50;99.90;;;;;;5028035;28;21751;-73
2023/07/16 09:38:12;;;;;;;8.23;3.00;;;21.50;99.90;;;;;;5028578;28;20439;-72
2023/07/16 09:40:58;;;;;;;4.80;2.20;;;21.60;99.90;;;;;;5026045;28;20455;-73
2023/07/16 09:43:44;;;;;;;6.43;2.80;;;21.70;99.90;;;;;;5029432;28;20436;-73
2023/07/16 09:46:30;;;;;;;7.50;2.70;;;21.60;99.90;;;;;;5022514;28;20435;-73
2023/07/16 09:49:17;;;;;;;12.13;3.63;;;21.70;99.90;;;;;;5025436;28;20508;-73
2023/07/16 09:52:03;;;;;;;16.50;3.87;;;21.80;99.90;;;;;;5025597;28;20502;-73
2023/07/16 09:54:53;;;;;;;6.77;3.00;;;21.90;99.90;;;;;;5020689;28;21070;-73
2023/07/16 09:57:42;;;;;;;11.10;2.60;;;22.00;99.90;;;;;;5020534;28;20469;-73
2023/07/16 10:00:28;;;;;;;9.50;2.67;;;22.10;99.90;;;;;;5021835;28;20954;-73
2023/07/16 10:03:16;;;;;;;13.30;2.70;;;22.10;99.90;;;;;;5026873;28;20496;-73
2023/07/16 10:06:08;;;;;;;8.80;2.90;;;22.10;99.90;;;;;;5020273;28;20469;-73
2023/07/16 10:08:54;;;;;;;6.33;2.87;;;22.20;99.90;;;;;;5024482;28;20567;-73
2023/07/16 10:11:41;;;;;;;7.80;3.00;;;22.20;99.90;;;;;;5023426;28;20445;-73
2023/07/16 10:14:27;;;;;;;14.27;3.33;;;22.40;99.90;;;;;;5021302;28;20797;-73
2023/07/16 10:17:16;;;;;;;13.30;3.03;;;22.60;99.90;;;;;;5019152;28;20434;-73
2023/07/16 10:20:07;;;;;;;9.60;2.93;;;22.70;82.40;;;;;;5027273;28;20504;-73
2023/07/16 10:22:54;;;;;;;7.00;2.87;;;22.60;81.40;;;;;;5019353;28;21002;-73
2023/07/16 10:25:40;;;;;;;9.43;3.20;;;22.60;89.60;;;;;;5017745;28;20928;-73
2023/07/16 10:28:25;;;;;;;6.40;2.40;;;22.70;79.90;;;;;;5023571;28;20485;-73
2023/07/16 10:31:19;;;;;;;13.13;2.73;;;22.80;76.30;;;;;;5026476;28;20549;-73
2023/07/16 10:34:05;;;;;;;10.73;2.60;;;22.80;83.70;;;;;;5019165;28;21083;-73
2023/07/16 10:36:51;;;;;;;9.20;2.93;;;22.90;77.60;;;;;;5017842;28;20601;-73
2023/07/16 10:39:47;;;;;;;9.33;2.43;;;22.90;68.50;;;;;;5025068;28;20973;-73
2023/07/16 10:42:33;;;;;;;10.47;2.50;;;23.00;67.40;;;;;;5021388;28;20502;-73
2023/07/16 10:45:18;;;;;;;5.57;2.67;;;23.20;69.80;;;;;;5019423;28;20486;-73
2023/07/16 10:48:05;;;;;;;7.50;3.07;;;23.10;61.50;;;;;;5018945;28;20460;-73
2023/07/16 10:50:54;;;;;;;8.90;3.00;;;23.20;64.60;;;;;;5019397;28;20427;-73
2023/07/16 10:53:42;;;;;;;7.97;2.90;;;23.00;61.90;;;;;;5019111;28;20419;-73
2023/07/16 10:56:28;;;;;;;3.70;2.50;;;23.00;68.70;;;;;;5021600;28;20567;-73
2023/07/16 10:59:14;;;;;;;10.43;2.90;;;23.10;64.30;;;;;;5017289;28;21057;-73
2023/07/16 11:01:59;;;;;;;7.83;3.47;;;23.30;65.40;;;;;;5011995;28;20455;-73
2023/07/16 11:04:48;;;;;;;4.80;2.27;;;23.40;61.50;;;;;;5017205;28;20414;-73
2023/07/16 11:07:34;;;;;;;14.80;2.40;;;23.70;63.00;;;;;;5021913;28;20480;-72
2023/07/16 11:10:19;;;;;;;4.70;2.17;;;23.80;58.70;;;;;;5019350;28;20453;-72
2023/07/16 11:13:06;;;;;;;6.37;2.67;;;23.80;64.80;;;;;;5023828;28;20441;-73
2023/07/16 11:15:51;;;;;;;11.63;2.50;;;23.80;50.30;;;;;;5022334;28;20431;-73
2023/07/16 11:18:37;;;;;;;6.13;2.37;;;23.70;55.90;;;;;;5021779;28;20781;-74
2023/07/16 11:21:22;;;;;;;9.53;3.00;;;23.90;62.60;;;;;;5020172;28;20485;-72
2023/07/16 11:24:09;;;;;;;8.97;2.60;;;23.90;53.50;;;;;;5023342;28;20769;-72
2023/07/16 11:26:57;;;;;;;5.73;2.90;;;23.90;59.10;;;;;;5022303;28;20439;-72
2023/07/16 11:29:48;;;;;;;5.17;2.50;;;23.90;55.70;;;;;;5019052;28;20882;-72
2023/07/16 11:32:35;;;;;;;7.10;3.23;;;24.00;52.50;;;;;;5019744;28;20447;-72
2023/07/16 11:35:21;;;;;;;8.87;3.10;;;24.00;50.00;;;;;;5029183;28;20423;-72
2023/07/16 11:38:07;;;;;;;14.07;3.03;;;24.10;51.50;;;;;;5019683;28;20472;-72
2023/07/16 11:40:52;;;;;;;9.67;2.73;;;24.30;59.40;;;;;;5018610;28;20452;-71
2023/07/16 11:43:41;;;;;;;7.57;2.67;;;24.50;48.20;;;;;;5024980;28;20460;-71
2023/07/16 11:46:32;;;;;;;11.00;2.63;;;24.50;45.10;;;;;;5019366;28;20467;-71
2023/07/16 11:49:18;;;;;;;6.30;3.10;;;24.70;42.40;;;;;;5015799;28;20449;-71
2023/07/16 11:52:04;;;;;;;7.63;2.90;;;24.50;37.00;;;;;;5011791;28;20449;-71
2023/07/16 11:54:50;;;;;;;12.83;3.10;;;24.40;44.90;;;;;;5021967;28;20456;-71
2023/07/16 11:57:35;;;;;;;7.83;3.20;;;24.40;40.50;;;;;;5022373;28;20462;-71
2023/07/16 12:00:21;;;;;;;6.37;2.80;;;24.20;42.50;;;;;;5020721;28;20465;-71
2023/07/16 12:03:07;;;;;;;9.37;2.80;;;24.20;46.00;;;;;;5022463;28;20476;-72
2023/07/16 12:05:53;;;;;;;7.13;2.67;;;24.30;36.30;;;;;;5024396;28;20497;-72
2023/07/16 12:08:38;;;;;;;6.83;2.67;;;24.10;39.40;;;;;;5019421;28;20858;-72
2023/07/16 12:11:24;;;;;;;6.07;3.00;;;23.90;39.30;;;;;;5027133;28;20467;-72
2023/07/16 12:14:10;;;;;;;11.10;2.70;;;24.00;42.60;;;;;;5017334;28;20464;-72
2023/07/16 12:16:56;;;;;;;4.50;3.07;;;24.20;36.90;;;;;;5017588;28;20465;-72
2023/07/16 12:19:43;;;;;;;5.90;2.40;;;24.40;34.30;;;;;;5023279;28;20416;-72
2023/07/16 12:22:28;;;;;;;11.77;2.73;;;24.50;34.20;;;;;;5010501;28;20498;-71
2023/07/16 12:25:15;;;;;;;7.40;2.70;;;24.70;38.50;;;;;;5009434;28;20454;-71
2023/07/16 12:28:02;;;;;;;6.20;2.60;;;24.70;33.30;;;;;;5007325;28;20465;-72
2023/07/16 12:30:47;;;;;;;5.60;2.40;;;24.90;33.10;;;;;;5019530;28;20449;-72
2023/07/16 12:33:32;;;;;;;5.27;3.33;;;24.80;30.00;;;;;;5015596;28;20419;-71
2023/07/16 12:36:19;;;;;;;4.90;2.30;;;24.50;29.50;;;;;;5020235;28;20442;-73
2023/07/16 12:39:05;;;;;;;8.87;2.83;;;24.70;28.30;;;;;;5024692;28;20448;-72
2023/07/16 12:41:50;;;;;;;9.60;3.10;;;25.00;33.30;;;;;;5021561;28;20471;-72
2023/07/16 12:44:36;;;;;;;6.37;2.47;;;25.20;26.90;;;;;;5016156;28;20408;-72
2023/07/16 12:47:21;;;;;;;7.37;2.90;;;25.40;25.30;;;;;;5020522;28;20446;-72
2023/07/16 12:50:08;;;;;;;6.83;2.60;;;25.60;22.70;;;;;;5022361;28;20563;-73
2023/07/16 12:52:55;;;;;;;4.77;2.47;;;25.80;19.60;;;;;;5030757;28;20427;-73
2023/07/16 12:55:40;;;;;;;8.83;2.73;;;25.80;23.90;;;;;;5022474;28;20448;-73
2023/07/16 12:58:26;;;;;;;4.60;2.50;;;25.70;22.30;;;;;;5026173;28;20497;-73
2023/07/16 13:01:11;;;;;;;5.63;2.60;;;25.90;22.30;;;;;;5023368;28;20419;-73
2023/07/16 13:03:57;;;;;;;5.93;2.50;;;25.90;21.30;;;;;;5024995;28;20532;-72
2023/07/16 13:06:45;;;;;;;6.67;2.90;;;25.90;21.20;;;;;;5015913;28;20479;-73
2023/07/16 13:09:32;;;;;;;4.70;2.87;;;26.00;18.50;;;;;;5024275;28;20495;-72
2023/07/16 13:12:17;;;;;;;6.10;2.70;;;26.00;19.10;;;;;;5021362;28;20496;-73
2023/07/16 13:15:03;;;;;;;4.53;2.60;;;26.00;16.00;;;;;;5024007;28;20447;-72
2023/07/16 13:17:48;;;;;;;7.27;2.60;;;25.90;17.90;;;;;;5029780;28;20435;-72
2023/07/16 13:20:34;;;;;;;7.87;3.73;;;26.10;19.70;;;;;;5025499;28;20607;-73
2023/07/16 13:23:19;;;;;;;4.10;2.10;;;26.50;20.50;;;;;;5022574;28;21139;-73
2023/07/16 13:26:06;;;;;;;9.53;2.63;;;26.50;19.00;;;;;;5024453;28;20440;-72
2023/07/16 13:28:52;;;;;;;8.17;2.77;;;26.60;17.30;;;;;;5029223;28;20958;-73
2023/07/16 13:31:37;;;;;;;6.90;3.20;;;26.60;16.00;;;;;;5027091;28;20977;-72
2023/07/16 13:34:23;;;;;;;10.57;2.70;;;26.70;15.90;;;;;;5024291;28;20844;-72
2023/07/16 13:37:08;;;;;;;7.10;3.30;;;26.80;17.90;;;;;;5028464;28;20834;-73
2023/07/16 13:39:55;;;;;;;6.87;2.80;;;26.90;18.10;;;;;;5022776;28;20436;-73
2023/07/16 13:42:41;;;;;;;5.23;3.10;;;26.90;17.20;;;;;;5026571;28;20484;-73
2023/07/16 13:45:27;;;;;;;5.07;3.10;;;26.90;15.30;;;;;;5024803;28;20444;-72
2023/07/16 13:48:13;;;;;;;9.77;3.30;;;26.90;12.90;;;;;;5026888;28;20861;-72
2023/07/16 13:50:58;;;;;;;4.00;2.53;;;26.90;13.90;;;;;;5025101;28;21979;-72
2023/07/16 13:53:44;;;;;;;9.43;3.20;;;27.10;14.40;;;;;;5027623;28;20571;-72
2023/07/16 13:56:29;;;;;;;5.17;2.90;;;26.90;15.80;;;;;;5025211;28;20461;-73
2023/07/16 13:59:16;;;;;;;5.23;2.70;;;27.10;13.40;;;;;;5025578;28;20859;-73
2023/07/16 14:02:03;;;;;;;5.27;2.90;;;27.10;15.10;;;;;;5025742;28;20462;-72
2023/07/16 14:04:48;;;;;;;7.43;3.00;;;27.10;14.30;;;;;;5029057;28;20511;-73
2023/07/16 14:07:34;;;;;;;7.60;3.43;;;27.10;16.00;;;;;;5041117;22;20990;-84
2023/07/16 14:10:19;;;;;;;8.20;3.27;;;27.10;15.60;;;;;;5028464;28;20427;-84
2023/07/16 14:13:05;;;;;;;6.40;3.20;;;27.30;15.00;;;;;;5031086;28;20460;-85
2023/07/16 14:15:52;;;;;;;4.37;2.53;;;27.50;14.70;;;;;;5032621;28;20541;-84
2023/07/16 14:18:37;;;;;;;6.80;3.47;;;27.70;12.30;;;;;;5029625;28;20448;-83
2023/07/16 14:21:25;;;;;;;5.37;2.30;;;27.60;13.20;;;;;;5034659;28;20483;-84
2023/07/16 14:24:11;;;;;;;7.93;3.07;;;27.50;12.50;;;;;;5030497;28;20618;-84